Glen Rose, Texas
Current Conditions -  °F | °C
As of 7:35 PM on Monday 20 Oct 2014 (Local Time) from KGDJ Reporting Station
Clear Clear  
Wind Chill: 24°   Ceiling: Unl
Heat Index: 24°   Visibility: 10mi
Dew Point: 15°   Wind: 3mph
Humidity: 55%   Direction: 130°SE
Pressure: 30.03"   Gusts: NA
Location:  32.23°N, 97.76°W
Report Text: KGDJ 210035Z AUTO 13003KT 10SM CLR 24/15 A3003 RMK AO2 T02410146
Loading
Personal Weather Stations






























Interactive Weather Map
Tropical Storm Tracking
New forecast layout! Learn more

10-Day Weather Forecast

Advertisements
Track Severe Weather on mobile